YWLM

Newcastle Airport

Williamtown, Australia
TAF AMD YWLM 180815Z 1808/1906 04012KT 9999 -SHRA SCT020 SCT040 FM181100 02008KT 9999 SCT020 FM182000 33008KT 9999 FEW020 FM182200 35008KT 9999 FEW015 FM190200 07014KT 9999 -SHRA SCT040 INTER 1810/1812 4000 SHRA BKN010 PROB40 TEMPO 1808/1810 VRB20G30KT 2000 TSRA BKN010 SCT040CB PROB40 1815/1822 0500 FG BKN003
Issued Valid From Valid To
Oct-18 @ 08:15 UTC
(3 hours ago)
Oct-18 @ 08:00 UTC
(4 hours ago)
Oct-19 @ 06:00 UTC
(in 18 hours)
Expired Click to View Oct-18 @ 08:00 to Oct-18 @ 11:00
TAF AMD YWLM 180815Z 1808/1906 04012KT 9999 -SHRA SCT020 SCT040
Wind Visibility Clouds Conditions
40° at 12 knots 10,000+ meters
  • Scattered at 2,000' AGL
  • Scattered at 4,000' AGL
  • Light Rain
Expired Click to View Oct-18 @ 08:00 to Oct-18 @ 10:00
PROB40 TEMPO 1808/1810 VRB20G30KT 2000 TSRA BKN010 SCT040CB
Wind Visibility Clouds Conditions
Variable at 20 knots
 Gusting to 30 knots
1,996 meters
  • Broken at 1,000' AGL
  • Scattered at 4,000' AGL
  • Thunderstorm
  • Rain
Temporary Oct-18 @ 10:00 to Oct-18 @ 12:00
INTER 1810/1812 4000 SHRA BKN010
Visibility Clouds Conditions
4,007 meters
  • Broken at 1,000' AGL
  • Rain
From Oct-18 @ 11:00 to Oct-18 @ 20:00
FM181100 02008KT 9999 SCT020
Wind Visibility Clouds
20° at 8 knots 10,000+ meters
  • Scattered at 2,000' AGL
Probable  (Probability 40%) Oct-18 @ 15:00 to Oct-18 @ 22:00
PROB40 1815/1822 0500 FG BKN003
Visibility Clouds Conditions
499 meters
  • Broken at 300' AGL
  • Fog
From Oct-18 @ 20:00 to Oct-18 @ 22:00
FM182000 33008KT 9999 FEW020
Wind Visibility Clouds
330° at 8 knots 10,000+ meters
  • Few at 2,000' AGL
From Oct-18 @ 22:00 to Oct-19 @ 02:00
FM182200 35008KT 9999 FEW015
Wind Visibility Clouds
350° at 8 knots 10,000+ meters
  • Few at 1,500' AGL
From Oct-19 @ 02:00 to Oct-19 @ 06:00
FM190200 07014KT 9999 -SHRA SCT040
Wind Visibility Clouds Conditions
70° at 14 knots 10,000+ meters
  • Scattered at 4,000' AGL
  • Light Rain
TAF AMD YWLM 180815Z 1808/1906 04012KT 9999 -SHRA SCT020 SCT040 FM181100 02008KT 9999 SCT020 FM182000 33008KT 9999 FEW020 FM182200 35008KT 9999 FEW015 FM190200 07014KT 9999 -SHRA SCT040 INTER 1810/1812 4000 SHRA BKN010 PROB40 TEMPO 1808/1810 VRB20G30KT 2000 TSRA BKN010 SCT040CB PROB40 1815/1822 0500 FG BKN003
Issued Oct-18 @ 08:15 UTC
(3 hours ago)
Valid From Oct-18 @ 08:00 UTC
(4 hours ago)
Valid To Oct-19 @ 06:00 UTC
(in 18 hours)
Oct-18 @ 08:00 - Oct-18 @ 11:00
Wind Visibility
40° at 12 knots 10,000+ meters
Clouds
  • Scattered at 2,000' AGL
  • Scattered at 4,000' AGL
Conditions
  • Light Rain
Oct-18 @ 08:00 - Oct-18 @ 10:00
Wind Visibility
Variable at 20 knots
 Gusting to 30 knots
1,996 meters
Clouds
  • Broken at 1,000' AGL
  • Scattered at 4,000' AGL
Conditions
  • Thunderstorm
  • Rain
Temporary Oct-18 @ 10:00 - Oct-18 @ 12:00
Clouds
  • Broken at 1,000' AGL
Conditions
  • Rain
From Oct-18 @ 11:00 - Oct-18 @ 20:00
Wind Visibility
20° at 8 knots 10,000+ meters
Clouds
  • Scattered at 2,000' AGL
Probability 40% Probable Oct-18 @ 15:00 - Oct-18 @ 22:00
Clouds
  • Broken at 300' AGL
Conditions
  • Fog
From Oct-18 @ 20:00 - Oct-18 @ 22:00
Wind Visibility
330° at 8 knots 10,000+ meters
Clouds
  • Few at 2,000' AGL
From Oct-18 @ 22:00 - Oct-19 @ 02:00
Wind Visibility
350° at 8 knots 10,000+ meters
Clouds
  • Few at 1,500' AGL
From Oct-19 @ 02:00 - Oct-19 @ 06:00
Wind Visibility
70° at 14 knots 10,000+ meters
Clouds
  • Scattered at 4,000' AGL
Conditions
  • Light Rain